createdAt,value
2018-08-31T00:02:18.066Z,98557.48
2018-08-31T00:05:04.482Z,98557.33
2018-08-31T00:07:56.297Z,98558.70
2018-08-31T00:10:45.269Z,98559.19
2018-08-31T00:13:14.625Z,98564.77
2018-08-31T00:15:44.033Z,98560.94
2018-08-31T00:18:13.401Z,98566.23
2018-08-31T00:20:42.785Z,98567.00
2018-08-31T00:23:12.166Z,98566.17
2018-08-31T00:26:10.814Z,98569.12
2018-08-31T00:29:08.454Z,98561.86
2018-08-31T00:31:56.930Z,98554.49
2018-08-31T00:34:47.758Z,98553.23
2018-08-31T00:38:40.743Z,98557.07
2018-08-31T00:41:30.438Z,98556.30
2018-08-31T00:44:35.478Z,98553.28
2018-08-31T00:47:04.938Z,98560.95
2018-08-31T00:49:34.374Z,98554.18
2018-08-31T00:52:03.762Z,98548.75
2018-08-31T00:54:33.145Z,98552.61
2018-08-31T00:57:02.553Z,98550.43
2018-08-31T00:59:31.922Z,98546.84
2018-08-31T01:02:01.578Z,98547.28
2018-08-31T01:04:30.974Z,98549.86
2018-08-31T01:07:00.357Z,98548.25
2018-08-31T01:09:29.730Z,98541.83
2018-08-31T01:11:59.145Z,98539.67
2018-08-31T01:14:28.527Z,98535.73
2018-08-31T01:16:57.903Z,98539.14
2018-08-31T01:19:27.328Z,98541.69
2018-08-31T01:21:56.758Z,98543.05
2018-08-31T01:24:26.145Z,98541.05
2018-08-31T01:26:55.767Z,98544.95
2018-08-31T01:29:25.142Z,98543.59
2018-08-31T01:31:54.842Z,98546.19
2018-08-31T01:34:24.246Z,98542.81
2018-08-31T01:36:53.690Z,98543.70
2018-08-31T01:39:23.073Z,98543.36
2018-08-31T01:41:52.429Z,98535.34
2018-08-31T01:44:21.887Z,98535.86
2018-08-31T01:46:51.254Z,98539.73
2018-08-31T01:49:20.645Z,98532.13
2018-08-31T01:51:50.010Z,98534.33
2018-08-31T01:54:19.402Z,98533.45
2018-08-31T01:56:48.830Z,98538.98
2018-08-31T01:59:18.204Z,98535.97
2018-08-31T02:01:47.634Z,98535.92
2018-08-31T02:04:17.031Z,98533.79
2018-08-31T02:06:46.413Z,98534.12
2018-08-31T02:09:19.791Z,98533.25
2018-08-31T02:11:50.130Z,98534.17
2018-08-31T02:14:19.611Z,98534.98
2018-08-31T02:16:49.069Z,98539.66
2018-08-31T02:19:18.438Z,98541.79
2018-08-31T02:21:47.858Z,98541.37
2018-08-31T02:24:17.226Z,98544.35
2018-08-31T02:26:46.606Z,98544.30
2018-08-31T02:29:16.006Z,98544.27
2018-08-31T02:31:45.401Z,98542.08
2018-08-31T02:34:14.837Z,98540.75
2018-08-31T02:36:44.189Z,98539.46
2018-08-31T02:39:13.710Z,98539.52
2018-08-31T02:41:43.093Z,98533.95
2018-08-31T02:44:12.496Z,98534.00
2018-08-31T02:46:41.875Z,98523.34
2018-08-31T02:49:11.278Z,98521.66
2018-08-31T02:51:40.691Z,98524.66
2018-08-31T02:54:10.086Z,98520.02
2018-08-31T02:56:39.639Z,98525.09
2018-08-31T02:59:09.074Z,98522.13
2018-08-31T03:01:38.463Z,98523.85
2018-08-31T03:04:08.019Z,98518.36
2018-08-31T03:06:37.421Z,98522.20
2018-08-31T03:09:07.678Z,98522.22
2018-08-31T03:11:37.145Z,98521.77
2018-08-31T03:14:06.510Z,98522.63
2018-08-31T03:16:35.933Z,98527.36
2018-08-31T03:19:05.341Z,98521.78
2018-08-31T03:21:34.702Z,98525.73
2018-08-31T03:24:04.234Z,98522.32
2018-08-31T03:26:33.646Z,98524.44
2018-08-31T03:29:03.069Z,98520.58
2018-08-31T03:31:32.481Z,98522.29
2018-08-31T03:34:01.849Z,98525.24
2018-08-31T03:36:31.243Z,98524.38
2018-08-31T03:39:00.647Z,98523.55
2018-08-31T03:41:30.016Z,98519.69
2018-08-31T03:43:59.444Z,98437.25
2018-08-31T03:46:28.826Z,98510.64
2018-08-31T03:49:12.225Z,98267.00
2018-08-31T03:51:41.634Z,98522.10
2018-08-31T03:54:11.008Z,98515.70
2018-08-31T03:56:40.427Z,98511.35
2018-08-31T03:59:09.786Z,98524.63
2018-08-31T04:01:39.167Z,98521.58
2018-08-31T04:04:08.526Z,98520.72
2018-08-31T04:06:37.888Z,98517.73
2018-08-31T04:09:08.986Z,98519.48
2018-08-31T04:11:38.345Z,98513.44
2018-08-31T04:14:07.717Z,98523.73
2018-08-31T04:16:37.082Z,98521.11
2018-08-31T04:19:13.018Z,98524.53
2018-08-31T04:21:42.644Z,98527.13
2018-08-31T04:24:12.697Z,98533.07
2018-08-31T04:26:42.069Z,98521.47
2018-08-31T04:29:11.874Z,98531.72
2018-08-31T04:31:41.475Z,98530.46
2018-08-31T04:34:11.973Z,98536.83
2018-08-31T04:36:42.240Z,98539.76
2018-08-31T04:39:13.130Z,98544.50
2018-08-31T04:41:43.691Z,98544.05
2018-08-31T04:44:13.216Z,98540.67
2018-08-31T04:46:42.609Z,98546.25
2018-08-31T04:49:11.977Z,98541.15
2018-08-31T04:51:41.370Z,98545.39
2018-08-31T04:54:10.723Z,98550.98
2018-08-31T04:56:40.102Z,98557.39
2018-08-31T04:59:09.462Z,98557.77
2018-08-31T05:01:38.833Z,98556.49
2018-08-31T05:04:08.207Z,98561.55
2018-08-31T05:06:37.814Z,98559.42
2018-08-31T05:09:10.315Z,98565.78
2018-08-31T05:11:39.682Z,98560.16
2018-08-31T05:14:09.092Z,98556.31
2018-08-31T05:16:38.478Z,98552.08
2018-08-31T05:19:07.865Z,98553.33
2018-08-31T05:21:37.219Z,98558.41
2018-08-31T05:24:06.646Z,98557.53
2018-08-31T05:26:36.014Z,98562.63
2018-08-31T05:29:05.417Z,98563.05
2018-08-31T05:31:34.795Z,98559.67
2018-08-31T05:34:04.232Z,98553.66
2018-08-31T05:36:33.542Z,98559.33
2018-08-31T05:39:02.938Z,98556.31
2018-08-31T05:41:32.347Z,98559.35
2018-08-31T05:44:01.721Z,98560.56
2018-08-31T05:46:31.100Z,98564.41
2018-08-31T05:49:00.458Z,98564.41
2018-08-31T05:51:29.835Z,98559.67
2018-08-31T05:53:59.214Z,98560.85
2018-08-31T05:56:28.615Z,98563.41
2018-08-31T05:58:58.010Z,98560.37
2018-08-31T06:01:27.406Z,98558.67
2018-08-31T06:03:56.769Z,98562.40
2018-08-31T06:06:26.154Z,98567.83
2018-08-31T06:08:55.510Z,98566.45
2018-08-31T06:11:24.894Z,98573.69
2018-08-31T06:13:54.278Z,98578.28
2018-08-31T06:16:23.656Z,98582.33
2018-08-31T06:18:53.065Z,98583.86
2018-08-31T06:21:22.461Z,98586.30
2018-08-31T06:23:51.834Z,98593.09
2018-08-31T06:26:21.225Z,98590.69
2018-08-31T06:28:50.585Z,98588.92
2018-08-31T06:31:19.960Z,98585.78
2018-08-31T06:33:49.373Z,98591.27
2018-08-31T06:36:18.758Z,98598.00
2018-08-31T06:38:48.138Z,98593.28
2018-08-31T06:41:17.592Z,98595.53
2018-08-31T06:43:46.967Z,98598.12
2018-08-31T06:46:16.330Z,98598.28
2018-08-31T06:48:45.710Z,98601.75
2018-08-31T06:51:15.181Z,98599.02
2018-08-31T06:53:44.714Z,98609.17
2018-08-31T06:56:14.090Z,98609.33
2018-08-31T06:58:43.442Z,98614.14
2018-08-31T07:01:12.903Z,98609.91
2018-08-31T07:03:42.358Z,98613.84
2018-08-31T07:06:11.737Z,98610.28
2018-08-31T07:08:41.111Z,98608.85
2018-08-31T07:11:10.551Z,98609.20
2018-08-31T07:13:39.928Z,98603.10
2018-08-31T07:16:09.305Z,98609.93
2018-08-31T07:18:38.670Z,98618.36
2018-08-31T07:21:08.170Z,98615.70
2018-08-31T07:23:37.550Z,98616.44
2018-08-31T07:26:06.966Z,98617.42
2018-08-31T07:28:36.346Z,98620.02
2018-08-31T07:31:05.954Z,98617.57
2018-08-31T07:33:35.312Z,98620.55
2018-08-31T07:36:04.698Z,98620.05
2018-08-31T07:38:34.100Z,98620.05
2018-08-31T07:41:03.494Z,98611.53
2018-08-31T07:43:32.837Z,98611.47
2018-08-31T07:46:02.198Z,98617.02
2018-08-31T07:48:31.570Z,98618.58
2018-08-31T07:51:00.938Z,98622.58
2018-08-31T07:53:30.338Z,98622.02
2018-08-31T07:55:59.749Z,98621.45
2018-08-31T07:58:29.522Z,98619.20
2018-08-31T08:00:58.893Z,98611.56
2018-08-31T08:03:28.254Z,98614.70
2018-08-31T08:05:57.699Z,98612.13
2018-08-31T08:08:27.062Z,98617.16
2018-08-31T08:10:56.454Z,98602.16
2018-08-31T08:13:25.834Z,98604.48
2018-08-31T08:15:55.190Z,98607.16
2018-08-31T08:18:24.578Z,98606.69
2018-08-31T08:20:54.004Z,98608.18
2018-08-31T08:23:23.389Z,98606.94
2018-08-31T08:25:52.798Z,98602.27
2018-08-31T08:28:22.244Z,98610.95
2018-08-31T08:30:51.572Z,98617.66
2018-08-31T08:33:20.988Z,98611.63
2018-08-31T08:35:50.377Z,98608.73
2018-08-31T08:38:19.742Z,98614.42
2018-08-31T08:40:49.354Z,98610.85
2018-08-31T08:43:18.736Z,98609.09
2018-08-31T08:45:48.094Z,98606.45
2018-08-31T08:48:17.499Z,98609.58
2018-08-31T08:50:46.855Z,98606.13
2018-08-31T08:53:16.210Z,98605.77
2018-08-31T08:55:45.575Z,98606.88
2018-08-31T08:58:14.952Z,98603.05
2018-08-31T09:00:44.306Z,98608.17
2018-08-31T09:03:13.690Z,98611.17
2018-08-31T09:05:43.110Z,98609.51
2018-08-31T09:08:12.425Z,98607.47
2018-08-31T09:10:41.791Z,98609.86
2018-08-31T09:13:11.149Z,98604.34
2018-08-31T09:15:40.527Z,98606.00
2018-08-31T09:18:09.896Z,98604.80
2018-08-31T09:20:39.270Z,98607.47
2018-08-31T09:23:08.645Z,98601.06
2018-08-31T09:25:38.357Z,98596.92
2018-08-31T09:28:07.714Z,98597.84
2018-08-31T09:30:43.304Z,98595.54
2018-08-31T09:33:12.709Z,98588.91
2018-08-31T09:35:42.069Z,98584.22
2018-08-31T09:38:11.520Z,98581.14
2018-08-31T09:40:40.891Z,98575.88
2018-08-31T09:43:10.774Z,98569.44
2018-08-31T09:45:40.141Z,98568.69
2018-08-31T09:48:09.503Z,98568.50
2018-08-31T09:50:38.886Z,98568.32
2018-08-31T09:53:08.260Z,98570.30
2018-08-31T09:55:40.977Z,98562.32
2018-08-31T09:58:10.367Z,98562.52
2018-08-31T10:00:44.940Z,98560.83
2018-08-31T10:03:19.493Z,98560.89
2018-08-31T10:05:48.876Z,98557.52
2018-08-31T10:08:18.285Z,98561.59
2018-08-31T10:10:47.890Z,98559.95
2018-08-31T10:13:17.223Z,98561.87
2018-08-31T10:15:46.634Z,98551.28
2018-08-31T10:18:16.018Z,98553.77
2018-08-31T10:20:45.391Z,98557.75
2018-08-31T10:23:14.786Z,98553.66
2018-08-31T10:25:44.162Z,98556.22
2018-08-31T10:28:13.523Z,98560.67
2018-08-31T10:30:42.914Z,98557.92
2018-08-31T10:33:19.066Z,98558.42
2018-08-31T10:35:48.454Z,98559.78
2018-08-31T10:38:17.826Z,98563.90
2018-08-31T10:40:47.245Z,98561.08
2018-08-31T10:43:16.630Z,98555.23
2018-08-31T10:45:46.074Z,98556.34
2018-08-31T10:48:15.434Z,98552.81
2018-08-31T10:50:44.910Z,98557.27
2018-08-31T10:53:14.305Z,98554.59
2018-08-31T10:55:43.670Z,98552.09
2018-08-31T10:58:13.118Z,98553.95
2018-08-31T11:00:42.521Z,98551.94
2018-08-31T11:03:11.934Z,98552.16
2018-08-31T11:05:41.307Z,98553.14
2018-08-31T11:08:10.744Z,98553.47
2018-08-31T11:10:40.158Z,98552.20
2018-08-31T11:13:09.607Z,98554.05
2018-08-31T11:15:38.922Z,98551.23
2018-08-31T11:18:08.348Z,98553.39
2018-08-31T11:20:37.802Z,98526.99
2018-08-31T11:23:07.198Z,98542.44
2018-08-31T11:25:36.719Z,98549.98
2018-08-31T11:28:06.090Z,98543.05
2018-08-31T11:30:36.402Z,98542.78
2018-08-31T11:33:05.926Z,98541.21
2018-08-31T11:35:35.307Z,98538.55
2018-08-31T11:38:04.735Z,98542.23
2018-08-31T11:40:34.346Z,98539.66
2018-08-31T11:43:03.819Z,98540.50
2018-08-31T11:45:33.182Z,98547.38
2018-08-31T11:48:02.997Z,98546.53
2018-08-31T11:50:32.390Z,98544.84
2018-08-31T11:53:01.818Z,98544.77
2018-08-31T11:55:31.202Z,98548.44
2018-08-31T11:58:00.602Z,98545.89
2018-08-31T12:00:30.150Z,98546.02
2018-08-31T12:02:59.610Z,98541.36
2018-08-31T12:05:28.966Z,98545.84
2018-08-31T12:07:58.476Z,98545.55
2018-08-31T12:10:27.874Z,98543.72
2018-08-31T12:12:57.279Z,98539.09
2018-08-31T12:15:26.942Z,98534.79
2018-08-31T12:17:56.442Z,98528.42
2018-08-31T12:20:25.832Z,98528.22
2018-08-31T12:22:55.257Z,98527.58
2018-08-31T12:25:24.626Z,98526.62
2018-08-31T12:27:53.991Z,98522.67
2018-08-31T12:30:23.394Z,98523.98
2018-08-31T12:32:52.778Z,98520.63
2018-08-31T12:35:22.164Z,98516.64
2018-08-31T12:37:51.631Z,98513.04
2018-08-31T12:40:21.013Z,98527.88
2018-08-31T12:42:50.429Z,98521.11
2018-08-31T12:45:19.806Z,98522.77
2018-08-31T12:47:49.199Z,98512.30
2018-08-31T12:50:18.590Z,98523.89
2018-08-31T12:52:47.984Z,98525.64
2018-08-31T12:55:17.435Z,98528.75
2018-08-31T12:57:46.851Z,98529.73
2018-08-31T13:00:16.334Z,98526.95
2018-08-31T13:02:45.665Z,98525.84
2018-08-31T13:05:15.046Z,98516.64
2018-08-31T13:07:44.426Z,98517.31
2018-08-31T13:10:13.820Z,98518.46
2018-08-31T13:12:43.230Z,98518.55
2018-08-31T13:15:12.626Z,98521.37
2018-08-31T13:17:42.014Z,98516.66
2018-08-31T13:20:11.447Z,98517.38
2018-08-31T13:22:41.054Z,98514.87
2018-08-31T13:25:10.546Z,98517.43
2018-08-31T13:27:39.968Z,98516.39
2018-08-31T13:30:09.418Z,98518.41
2018-08-31T13:32:38.916Z,98517.70
2018-08-31T13:35:08.420Z,98515.55
2018-08-31T13:37:37.811Z,98518.52
2018-08-31T13:40:07.286Z,98522.77
2018-08-31T13:42:36.645Z,98520.27
2018-08-31T13:45:06.091Z,98525.14
2018-08-31T13:47:35.455Z,98520.43
2018-08-31T13:50:04.954Z,98521.84
2018-08-31T13:52:34.379Z,98521.67
2018-08-31T13:55:03.799Z,98527.17
2018-08-31T13:57:33.187Z,98520.11
2018-08-31T14:00:02.565Z,98523.92
2018-08-31T14:02:31.958Z,98516.13
2018-08-31T14:05:01.331Z,98524.53
2018-08-31T14:07:30.718Z,98525.70
2018-08-31T14:10:00.098Z,98522.39
2018-08-31T14:12:29.495Z,98524.03
2018-08-31T14:14:58.895Z,98528.66
2018-08-31T14:17:28.286Z,98531.07
2018-08-31T14:19:57.656Z,98527.84
2018-08-31T14:22:27.054Z,98533.22
2018-08-31T14:24:56.443Z,98525.33
2018-08-31T14:27:25.823Z,98530.74
2018-08-31T14:29:55.335Z,98520.96
2018-08-31T14:32:24.604Z,98525.50
2018-08-31T14:34:54.162Z,98527.11
2018-08-31T14:37:23.554Z,98524.02
2018-08-31T14:39:52.930Z,98532.61
2018-08-31T14:42:22.326Z,98532.83
2018-08-31T14:44:51.702Z,98526.16
2018-08-31T14:47:21.099Z,98532.55
2018-08-31T14:49:50.570Z,98533.53
2018-08-31T14:52:19.894Z,98536.00
2018-08-31T14:54:49.258Z,98533.36
2018-08-31T14:57:18.690Z,98535.25
2018-08-31T14:59:48.073Z,98529.66
2018-08-31T15:02:17.476Z,98529.86
2018-08-31T15:04:46.851Z,98528.74
2018-08-31T15:07:16.408Z,98528.54
2018-08-31T15:09:45.815Z,98529.45
2018-08-31T15:12:15.286Z,98528.53
2018-08-31T15:14:44.699Z,98532.52
2018-08-31T15:17:14.073Z,98531.42
2018-08-31T15:19:43.446Z,98529.28
2018-08-31T15:22:12.910Z,98527.45
2018-08-31T15:24:42.279Z,98533.62
2018-08-31T15:27:11.826Z,98532.59
2018-08-31T15:29:41.203Z,98534.56
2018-08-31T15:32:10.583Z,98538.63
2018-08-31T15:34:39.967Z,98539.66
2018-08-31T15:37:09.343Z,98531.49
2018-08-31T15:39:38.730Z,98531.43
2018-08-31T15:42:08.229Z,98526.14
2018-08-31T15:44:37.605Z,98526.48
2018-08-31T15:47:07.184Z,98523.28
2018-08-31T15:49:36.646Z,98517.47
2018-08-31T15:52:06.134Z,98516.41
2018-08-31T15:54:35.587Z,98520.14
2018-08-31T15:57:05.002Z,98517.86
2018-08-31T15:59:34.390Z,98456.51
2018-08-31T16:02:03.775Z,98518.83
2018-08-31T16:04:33.158Z,98517.91
2018-08-31T16:07:02.546Z,98518.44
2018-08-31T16:09:31.914Z,98520.67
2018-08-31T16:12:01.298Z,98523.66
2018-08-31T16:14:30.974Z,98517.94
2018-08-31T16:17:00.885Z,98520.32
2018-08-31T16:19:30.255Z,98527.59
2018-08-31T16:21:59.683Z,98527.38
2018-08-31T16:24:29.159Z,98529.33
2018-08-31T16:26:58.568Z,98529.40
2018-08-31T16:29:27.951Z,98526.20
2018-08-31T16:31:57.332Z,98523.66
2018-08-31T16:34:26.735Z,98525.91
2018-08-31T16:36:56.375Z,98526.58
2018-08-31T16:39:25.742Z,98527.20
2018-08-31T16:41:55.489Z,98528.05
2018-08-31T16:44:24.874Z,98528.34
2018-08-31T16:46:54.257Z,98537.84
2018-08-31T16:49:23.646Z,98536.63
2018-08-31T16:51:53.062Z,98534.59
2018-08-31T16:54:22.558Z,98540.72
2018-08-31T16:56:51.950Z,98539.13
2018-08-31T16:59:21.366Z,98539.35
2018-08-31T17:01:50.878Z,98547.93
2018-08-31T17:04:20.293Z,98543.15
2018-08-31T17:06:49.705Z,98549.12
2018-08-31T17:09:19.095Z,98551.62
2018-08-31T17:11:48.470Z,98550.06
2018-08-31T17:14:17.857Z,98555.34
2018-08-31T17:16:47.354Z,98564.78
2018-08-31T17:19:16.718Z,98555.33
2018-08-31T17:21:46.118Z,98558.06
2018-08-31T17:24:15.550Z,98558.67
2018-08-31T17:26:50.241Z,98557.67
2018-08-31T17:29:24.810Z,98557.02
2018-08-31T17:31:59.451Z,98561.96
2018-08-31T17:34:34.058Z,98560.76
2018-08-31T17:37:08.842Z,98559.36
2018-08-31T17:39:38.226Z,98561.28
2018-08-31T17:42:07.925Z,98565.42
2018-08-31T17:44:37.317Z,98568.73
2018-08-31T17:47:06.706Z,98570.65
2018-08-31T17:49:36.270Z,98573.30
2018-08-31T17:52:05.678Z,98582.13
2018-08-31T17:54:35.039Z,98586.08
2018-08-31T17:57:04.453Z,98585.50
2018-08-31T17:59:33.833Z,98589.40
2018-08-31T18:02:03.543Z,98588.03
2018-08-31T18:04:32.959Z,98593.67
2018-08-31T18:07:02.360Z,98593.05
2018-08-31T18:09:31.995Z,98598.86
2018-08-31T18:12:01.179Z,98602.58
2018-08-31T18:14:30.559Z,98610.44
2018-08-31T18:16:59.982Z,98607.66
2018-08-31T18:19:29.372Z,98609.94
2018-08-31T18:21:58.786Z,98613.68
2018-08-31T18:24:28.404Z,98615.90
2018-08-31T18:26:57.894Z,98620.31
2018-08-31T18:29:27.709Z,98620.84
2018-08-31T18:31:57.222Z,98624.88
2018-08-31T18:34:26.762Z,98631.48
2018-08-31T18:36:56.662Z,98627.17
2018-08-31T18:39:26.534Z,98634.61
2018-08-31T18:41:57.056Z,98638.61
2018-08-31T18:44:29.233Z,98640.38
2018-08-31T18:47:02.054Z,98646.78
2018-08-31T18:49:34.820Z,98645.27
2018-08-31T18:52:06.972Z,98645.53
2018-08-31T18:54:38.819Z,98643.91
2018-08-31T18:57:11.768Z,98647.56
2018-08-31T18:59:44.880Z,98645.78
2018-08-31T19:02:17.985Z,98647.42
2018-08-31T19:04:50.970Z,98655.62
2018-08-31T19:07:24.646Z,98643.02
2018-08-31T19:09:57.501Z,98662.27
2018-08-31T19:12:30.624Z,98663.38
2018-08-31T19:15:03.919Z,98664.29
2018-08-31T19:17:36.671Z,98666.97
2018-08-31T19:20:09.641Z,98674.64
2018-08-31T19:22:42.732Z,98678.77
2018-08-31T19:25:15.701Z,98675.33
2018-08-31T19:27:48.557Z,98679.64
2018-08-31T19:30:21.622Z,98678.94
2018-08-31T19:32:55.424Z,98681.08
2018-08-31T19:35:28.698Z,98684.02
2018-08-31T19:38:01.632Z,98684.23
2018-08-31T19:40:34.720Z,98685.08
2018-08-31T19:43:07.862Z,98685.61
2018-08-31T19:45:40.856Z,98690.51
2018-08-31T19:48:13.793Z,98686.27
2018-08-31T19:50:47.602Z,98689.25
2018-08-31T19:53:20.481Z,98699.78
2018-08-31T19:55:53.316Z,98699.66
2018-08-31T19:58:26.065Z,98700.63
2018-08-31T20:00:58.873Z,98698.16
2018-08-31T20:03:31.655Z,98696.02
2018-08-31T20:06:04.460Z,98696.94
2018-08-31T20:08:38.149Z,98703.84
2018-08-31T20:11:12.209Z,98705.02
2018-08-31T20:13:45.069Z,98710.66
2018-08-31T20:16:17.901Z,98713.25
2018-08-31T20:18:50.713Z,98710.73
2018-08-31T20:21:23.746Z,98711.48
2018-08-31T20:23:56.926Z,98713.80
2018-08-31T20:26:30.530Z,98716.02
2018-08-31T20:29:03.498Z,98716.42
2018-08-31T20:31:36.337Z,98724.57
2018-08-31T20:34:08.989Z,98730.11
2018-08-31T20:36:40.493Z,98729.26
2018-08-31T20:39:12.998Z,98731.02
2018-08-31T20:41:43.879Z,98733.64
2018-08-31T20:44:14.454Z,98734.09
2018-08-31T20:46:44.032Z,98734.59
2018-08-31T20:49:13.447Z,98736.52
2018-08-31T20:51:43.091Z,98741.84
2018-08-31T20:54:12.571Z,98747.85
2018-08-31T20:56:42.168Z,98751.78
2018-08-31T20:59:11.583Z,98756.09
2018-08-31T21:01:41.006Z,98748.29
2018-08-31T21:04:10.431Z,98749.11
2018-08-31T21:06:39.865Z,98749.96
2018-08-31T21:09:10.914Z,98761.16
2018-08-31T21:11:40.419Z,98765.62
2018-08-31T21:14:09.970Z,98762.06
2018-08-31T21:16:39.431Z,98761.33
2018-08-31T21:19:08.818Z,98762.56
2018-08-31T21:21:38.290Z,98765.58
2018-08-31T21:24:07.690Z,98763.88
2018-08-31T21:26:37.090Z,98760.54
2018-08-31T21:29:06.457Z,98764.81
2018-08-31T21:31:35.860Z,98765.74
2018-08-31T21:34:05.230Z,98767.92
2018-08-31T21:36:34.634Z,98768.56
2018-08-31T21:39:04.874Z,98763.91
2018-08-31T21:41:34.438Z,98769.02
2018-08-31T21:44:04.134Z,98773.76
2018-08-31T21:46:33.525Z,98772.47
2018-08-31T21:49:02.994Z,98773.73
2018-08-31T21:51:32.357Z,98765.63
2018-08-31T21:54:01.757Z,98766.52
2018-08-31T21:56:31.223Z,98762.68
2018-08-31T21:59:02.162Z,98767.92
2018-08-31T22:01:36.725Z,98768.78
2018-08-31T22:04:07.375Z,98770.14
2018-08-31T22:06:37.917Z,98768.02
2018-08-31T22:09:09.422Z,98771.86
2018-08-31T22:11:38.882Z,98768.47
2018-08-31T22:14:08.267Z,98769.33
2018-08-31T22:16:37.651Z,98762.50
2018-08-31T22:19:07.280Z,98765.05
2018-08-31T22:21:36.637Z,98763.80
2018-08-31T22:24:06.106Z,98746.27
2018-08-31T22:26:35.505Z,98764.27
2018-08-31T22:29:04.899Z,98760.88
2018-08-31T22:31:34.294Z,98760.47
2018-08-31T22:34:03.783Z,98757.45
2018-08-31T22:36:33.171Z,98761.74
2018-08-31T22:39:02.598Z,98759.22
2018-08-31T22:41:32.111Z,98763.10
2018-08-31T22:44:01.523Z,98766.52
2018-08-31T22:46:30.903Z,98765.25
2018-08-31T22:49:00.305Z,98765.67
2018-08-31T22:51:29.669Z,98766.95
2018-08-31T22:53:59.061Z,98762.66
2018-08-31T22:56:28.437Z,98627.80
2018-08-31T22:58:57.871Z,98767.78
2018-08-31T23:01:27.262Z,98765.17
2018-08-31T23:03:56.651Z,98766.91
2018-08-31T23:06:26.031Z,98767.72
2018-08-31T23:08:55.454Z,98759.59
2018-08-31T23:11:24.831Z,98767.27
2018-08-31T23:13:54.240Z,98765.09
2018-08-31T23:16:23.624Z,98761.64
2018-08-31T23:18:53.040Z,98771.08
2018-08-31T23:21:22.425Z,98765.95
2018-08-31T23:23:51.848Z,98772.34
2018-08-31T23:26:21.211Z,98766.33
2018-08-31T23:28:50.602Z,98773.18
2018-08-31T23:31:19.978Z,98774.87
2018-08-31T23:33:49.382Z,98774.86
2018-08-31T23:36:18.764Z,98780.80
2018-08-31T23:38:48.146Z,98781.21
2018-08-31T23:41:19.137Z,98782.47
2018-08-31T23:43:48.518Z,98784.19
2018-08-31T23:46:17.988Z,98789.78
2018-08-31T23:48:47.393Z,98786.30
2018-08-31T23:51:16.827Z,98793.10
2018-08-31T23:53:46.192Z,98792.21
2018-08-31T23:56:15.634Z,98794.23
2018-08-31T23:58:44.994Z,98795.47
